Time;durP1;ratioP1;P1;durP2;ratioP2;P2;SDS_P1;SDS_P2;PMS_P1;PMS_P2;Temp;Humidity;BMP_temperature;BMP_pressure;BME280_temperature;BME280_humidity;BME280_pressure;Samples;Min_cycle;Max_cycle;Signal;HPM_P1;HPM_P2
2021/03/14 00:01:42;;;;;;;26.05;2.67;;;5.40;95.30;;;;;;4945505;28;20038;-90
2021/03/14 00:04:08;;;;;;;25.73;3.47;;;5.30;95.30;;;;;;4974735;28;20169;-90
2021/03/14 00:06:34;;;;;;;30.92;2.80;;;5.30;95.30;;;;;;4960602;28;20075;-90
2021/03/14 00:09:00;;;;;;;20.17;2.95;;;5.30;95.20;;;;;;4951140;28;20520;-90
2021/03/14 00:11:26;;;;;;;24.95;3.45;;;5.30;95.30;;;;;;4967494;28;20129;-89
2021/03/14 00:13:51;;;;;;;25.98;3.05;;;5.30;95.40;;;;;;4979241;28;20245;-90
2021/03/14 00:16:18;;;;;;;22.48;2.92;;;5.30;95.30;;;;;;4964494;28;20039;-89
2021/03/14 00:18:44;;;;;;;27.40;3.58;;;5.30;95.30;;;;;;4966878;28;20505;-90
2021/03/14 00:21:10;;;;;;;30.88;4.20;;;5.30;95.30;;;;;;4970004;28;20041;-87
2021/03/14 00:23:36;;;;;;;23.13;2.53;;;5.40;95.30;;;;;;4968289;28;20390;-90
2021/03/14 00:26:03;;;;;;;23.60;2.95;;;5.40;95.30;;;;;;4980253;28;20480;-89
2021/03/14 00:28:29;;;;;;;22.27;2.25;;;5.40;95.20;;;;;;4989295;28;20062;-88
2021/03/14 00:30:55;;;;;;;15.98;2.45;;;5.40;95.30;;;;;;4969303;28;20486;-90
2021/03/14 00:33:21;;;;;;;24.17;3.20;;;5.40;95.20;;;;;;4985013;28;20057;-89
2021/03/14 00:35:47;;;;;;;13.68;2.22;;;5.40;95.20;;;;;;4981411;28;20055;-88
2021/03/14 00:38:13;;;;;;;19.80;2.92;;;5.40;95.10;;;;;;4965645;28;20069;-87
2021/03/14 00:40:40;;;;;;;21.05;3.30;;;5.40;95.20;;;;;;4978512;28;20423;-87
2021/03/14 00:43:09;;;;;;;18.45;2.00;;;5.30;95.20;;;;;;4978070;28;20118;-89
2021/03/14 00:45:37;;;;;;;19.88;2.33;;;5.30;95.20;;;;;;4978778;28;20030;-87
2021/03/14 00:48:05;;;;;;;25.45;2.85;;;5.30;95.30;;;;;;4966656;28;20039;-88
2021/03/14 00:50:36;;;;;;;15.23;2.60;;;5.30;95.10;;;;;;4977339;28;20089;-88
2021/03/14 00:53:02;;;;;;;17.70;2.38;;;5.30;95.00;;;;;;4974454;28;20077;-90
2021/03/14 00:55:28;;;;;;;11.50;2.80;;;5.30;95.10;;;;;;4970583;28;20129;-89
2021/03/14 00:57:56;;;;;;;12.00;2.00;;;5.30;95.00;;;;;;4957248;28;20038;-90
2021/03/14 01:00:22;;;;;;;20.63;2.15;;;5.30;95.00;;;;;;4949233;28;20504;-87
2021/03/14 01:02:47;;;;;;;22.35;2.28;;;5.20;95.00;;;;;;4948765;28;20112;-88
2021/03/14 01:05:14;;;;;;;17.60;2.17;;;5.30;95.10;;;;;;4976797;28;20062;-87
2021/03/14 01:07:40;;;;;;;13.80;1.77;;;5.20;95.00;;;;;;4978983;28;20328;-90
2021/03/14 01:10:07;;;;;;;14.52;2.03;;;5.20;95.00;;;;;;4966920;28;20039;-89
2021/03/14 01:12:33;;;;;;;15.35;2.08;;;5.20;95.00;;;;;;4967875;28;20054;-88
2021/03/14 01:14:59;;;;;;;21.92;2.40;;;5.20;94.90;;;;;;4961702;28;20064;-88
2021/03/14 01:17:26;;;;;;;18.65;3.03;;;5.10;95.00;;;;;;4971960;28;20150;-86
2021/03/14 01:19:52;;;;;;;23.17;2.72;;;5.10;94.90;;;;;;4977810;28;20301;-88
2021/03/14 01:22:17;;;;;;;19.63;2.67;;;5.10;95.00;;;;;;4975452;28;20042;-89
2021/03/14 01:24:43;;;;;;;25.85;2.80;;;5.10;95.00;;;;;;4931597;28;20077;-89
2021/03/14 01:27:09;;;;;;;20.90;2.67;;;5.10;95.00;;;;;;4941053;28;20362;-89
2021/03/14 01:29:35;;;;;;;13.55;2.45;;;5.10;95.00;;;;;;4962004;28;20031;-87
2021/03/14 01:32:01;;;;;;;14.55;2.28;;;5.10;95.00;;;;;;4968768;28;20041;-89
2021/03/14 01:34:27;;;;;;;14.18;1.98;;;5.10;95.00;;;;;;4958766;28;20622;-88
2021/03/14 01:36:53;;;;;;;22.33;2.55;;;5.10;95.00;;;;;;4957012;28;20046;-89
2021/03/14 01:39:20;;;;;;;19.42;2.00;;;5.10;94.90;;;;;;4979060;28;20049;-88
2021/03/14 01:41:46;;;;;;;24.52;2.85;;;5.10;95.00;;;;;;4959628;28;20030;-90
2021/03/14 01:44:12;;;;;;;12.13;2.60;;;5.10;95.00;;;;;;4992427;28;20039;-88
2021/03/14 01:46:38;;;;;;;27.25;2.72;;;5.10;95.10;;;;;;4980071;28;20035;-88
2021/03/14 01:49:04;;;;;;;19.92;3.10;;;5.20;95.10;;;;;;4995702;28;20062;-89
2021/03/14 01:51:32;;;;;;;20.05;2.58;;;5.20;95.20;;;;;;4965372;28;20045;-90
2021/03/14 01:53:59;;;;;;;26.67;2.92;;;5.20;95.10;;;;;;4983275;28;20041;-90
2021/03/14 01:56:25;;;;;;;21.23;3.05;;;5.20;95.20;;;;;;4968212;28;20430;-88
2021/03/14 01:58:50;;;;;;;26.55;3.38;;;5.20;95.50;;;;;;4930024;28;20042;-86
2021/03/14 02:01:17;;;;;;;22.90;3.33;;;5.20;95.20;;;;;;4975339;28;20049;-88
2021/03/14 02:03:43;;;;;;;26.98;3.20;;;5.20;95.20;;;;;;4950899;28;20041;-90
2021/03/14 02:06:09;;;;;;;16.95;3.08;;;5.20;95.20;;;;;;4958365;28;20350;-90
2021/03/14 02:08:36;;;;;;;18.60;2.50;;;5.20;95.60;;;;;;4968442;28;20045;-88
2021/03/14 02:11:03;;;;;;;24.30;3.05;;;5.20;95.20;;;;;;4984332;28;20037;-87
2021/03/14 02:13:40;;;;;;;18.73;2.75;;;5.20;95.20;;;;;;4993391;28;20400;-88
2021/03/14 02:16:08;;;;;;;23.42;3.10;;;5.10;95.20;;;;;;4984949;28;20039;-87
2021/03/14 02:18:37;;;;;;;23.83;3.17;;;5.20;95.20;;;;;;4993672;28;20071;-89
2021/03/14 02:21:03;;;;;;;23.33;3.00;;;5.10;95.20;;;;;;4986493;28;20041;-88
2021/03/14 02:23:51;;;;;;;17.65;3.08;;;5.10;95.10;;;;;;4979692;28;20042;-89
2021/03/14 02:26:24;;;;;;;31.15;3.80;;;5.10;95.20;;;;;;4975461;28;20578;-89
2021/03/14 02:28:52;;;;;;;23.80;3.67;;;5.10;95.20;;;;;;4972088;28;20065;-88
2021/03/14 02:31:21;;;;;;;19.30;2.75;;;5.10;95.20;;;;;;4976651;28;20043;-87
2021/03/14 02:33:51;;;;;;;24.98;3.05;;;5.10;95.20;;;;;;4970378;28;20085;-88
2021/03/14 02:36:18;;;;;;;22.67;3.10;;;5.10;95.20;;;;;;4974296;28;20121;-87
2021/03/14 02:38:45;;;;;;;23.85;2.78;;;5.10;95.30;;;;;;4962068;28;20035;-87
2021/03/14 02:41:15;;;;;;;20.77;3.40;;;5.10;95.20;;;;;;4963726;28;21871;-89
2021/03/14 02:43:41;;;;;;;25.02;3.78;;;5.10;95.30;;;;;;4960651;28;20030;-89
2021/03/14 02:46:08;;;;;;;21.00;3.85;;;5.10;95.30;;;;;;4979184;28;20057;-90
2021/03/14 02:48:36;;;;;;;34.97;3.83;;;5.20;95.20;;;;;;4990102;28;20053;-89
2021/03/14 02:51:03;;;;;;;30.02;3.80;;;5.20;95.30;;;;;;4973955;28;20043;-88
2021/03/14 02:53:30;;;;;;;28.65;3.25;;;5.10;95.30;;;;;;4978474;28;20070;-89
2021/03/14 02:55:57;;;;;;;29.48;3.50;;;5.20;95.30;;;;;;4984125;28;20046;-88
2021/03/14 02:58:24;;;;;;;29.98;4.25;;;5.10;95.30;;;;;;4986835;28;20041;-88
2021/03/14 03:00:51;;;;;;;23.08;3.40;;;5.10;95.30;;;;;;4970343;28;20250;-89
2021/03/14 03:03:22;;;;;;;25.77;3.63;;;5.10;95.40;;;;;;4964938;28;20049;-88
2021/03/14 03:05:49;;;;;;;21.35;2.90;;;5.20;95.40;;;;;;4981019;28;20441;-84
2021/03/14 03:08:18;;;;;;;27.15;3.35;;;5.20;95.30;;;;;;4976312;28;20810;-87
2021/03/14 03:10:46;;;;;;;27.75;3.25;;;5.20;95.30;;;;;;4974227;28;20474;-90
2021/03/14 03:13:13;;;;;;;21.75;2.83;;;5.20;95.20;;;;;;4994142;28;20496;-89
2021/03/14 03:15:40;;;;;;;23.17;3.22;;;5.20;95.30;;;;;;4971426;28;20144;-89
2021/03/14 03:18:07;;;;;;;19.40;3.25;;;5.20;95.20;;;;;;4960539;28;20135;-87
2021/03/14 03:20:34;;;;;;;26.23;3.30;;;5.20;95.20;;;;;;4964697;28;20515;-89
2021/03/14 03:23:00;;;;;;;22.95;3.72;;;5.20;95.20;;;;;;4980802;28;20061;-88
2021/03/14 03:25:26;;;;;;;28.58;3.75;;;5.20;95.30;;;;;;4986234;28;20496;-89
2021/03/14 03:27:52;;;;;;;27.20;4.32;;;5.30;95.30;;;;;;4974235;28;20030;-89
2021/03/14 03:30:20;;;;;;;30.25;4.15;;;5.20;95.30;;;;;;4961325;28;20038;-89
2021/03/14 03:32:47;;;;;;;28.85;3.88;;;5.20;95.30;;;;;;4983110;28;20101;-88
2021/03/14 03:35:15;;;;;;;19.00;3.28;;;5.20;95.40;;;;;;4987788;28;20038;-88
2021/03/14 03:37:42;;;;;;;29.73;3.97;;;5.10;95.30;;;;;;4977422;28;20335;-87
2021/03/14 03:40:11;;;;;;;23.02;3.70;;;5.10;95.30;;;;;;4975100;28;20041;-85
2021/03/14 03:42:53;;;;;;;32.35;4.05;;;5.10;95.40;;;;;;5013457;28;20058;-83
2021/03/14 03:45:21;;;;;;;22.70;4.13;;;5.10;95.40;;;;;;4977948;28;20137;-87
2021/03/14 03:47:51;;;;;;;32.47;4.60;;;5.10;95.30;;;;;;4978795;28;20038;-87
2021/03/14 03:50:17;;;;;;;31.13;3.63;;;5.00;95.40;;;;;;4978239;28;20042;-85
2021/03/14 03:52:45;;;;;;;29.92;4.07;;;5.00;95.30;;;;;;4986005;28;20031;-87
2021/03/14 03:55:12;;;;;;;25.30;4.32;;;5.00;95.30;;;;;;4983805;28;20076;-87
2021/03/14 03:57:40;;;;;;;28.20;3.78;;;5.00;95.30;;;;;;4981421;28;20057;-87
2021/03/14 04:00:14;;;;;;;27.00;4.35;;;4.90;95.30;;;;;;4973773;28;20137;-87
2021/03/14 04:02:41;;;;;;;29.73;3.88;;;4.90;95.30;;;;;;4975749;28;20038;-87
2021/03/14 04:05:10;;;;;;;27.10;3.63;;;4.80;95.30;;;;;;4971884;28;20560;-86
2021/03/14 04:07:42;;;;;;;27.52;3.80;;;4.80;95.30;;;;;;4983765;28;20512;-88
2021/03/14 04:10:13;;;;;;;31.13;4.00;;;4.80;95.30;;;;;;4980815;28;20031;-85
2021/03/14 04:12:42;;;;;;;25.67;3.75;;;4.70;95.40;;;;;;4982691;28;20054;-87
2021/03/14 04:15:10;;;;;;;32.00;3.88;;;4.70;95.40;;;;;;4984243;28;20306;-87
2021/03/14 04:17:38;;;;;;;30.73;4.07;;;4.70;95.50;;;;;;4968667;28;20515;-87
2021/03/14 04:20:07;;;;;;;29.65;4.00;;;4.80;95.60;;;;;;4989098;28;20488;-86
2021/03/14 04:22:34;;;;;;;21.95;3.85;;;4.70;95.50;;;;;;4979836;28;20054;-87
2021/03/14 04:25:01;;;;;;;29.48;4.15;;;4.70;95.50;;;;;;5002607;28;20277;-86
2021/03/14 04:27:28;;;;;;;19.60;3.30;;;4.80;95.60;;;;;;4982876;28;20040;-85
2021/03/14 04:29:56;;;;;;;30.67;4.60;;;4.80;95.60;;;;;;4980531;28;20051;-88
2021/03/14 04:32:23;;;;;;;28.90;4.25;;;4.80;95.50;;;;;;4968523;28;20665;-87
2021/03/14 04:34:50;;;;;;;26.20;4.25;;;4.80;95.60;;;;;;4982807;28;20042;-87
2021/03/14 04:37:17;;;;;;;24.60;3.92;;;4.90;95.60;;;;;;4970060;28;20034;-84
2021/03/14 04:39:43;;;;;;;30.27;4.50;;;4.90;95.60;;;;;;4983403;28;20482;-86
2021/03/14 04:42:10;;;;;;;28.88;4.05;;;4.90;95.60;;;;;;4969671;28;20038;-86
2021/03/14 04:44:36;;;;;;;29.10;4.10;;;4.90;95.60;;;;;;4977060;28;20129;-83
2021/03/14 04:47:04;;;;;;;19.88;4.15;;;4.90;95.60;;;;;;4973544;28;20057;-84
2021/03/14 04:49:32;;;;;;;25.70;4.07;;;4.90;95.50;;;;;;4983629;28;20045;-87
2021/03/14 04:51:58;;;;;;;33.42;4.35;;;4.90;95.50;;;;;;4964862;28;20073;-86
2021/03/14 04:54:26;;;;;;;22.08;4.00;;;4.90;95.80;;;;;;4976992;28;20425;-86
2021/03/14 04:56:53;;;;;;;21.95;3.08;;;4.90;95.50;;;;;;4965456;28;20481;-86
2021/03/14 04:59:22;;;;;;;31.58;4.35;;;4.90;95.50;;;;;;4982027;28;20038;-87
2021/03/14 05:01:49;;;;;;;25.15;3.58;;;4.90;95.50;;;;;;4975065;28;20034;-86
2021/03/14 05:04:19;;;;;;;24.13;3.90;;;4.90;95.50;;;;;;4978229;28;20030;-87
2021/03/14 05:06:47;;;;;;;21.15;3.25;;;4.90;95.50;;;;;;4986955;28;20038;-87
2021/03/14 05:09:14;;;;;;;20.80;3.40;;;4.90;95.60;;;;;;4988587;28;20049;-86
2021/03/14 05:11:45;;;;;;;20.98;3.47;;;4.90;95.60;;;;;;4999578;28;20047;-87
2021/03/14 05:14:12;;;;;;;20.67;3.22;;;4.90;95.60;;;;;;4979963;28;20477;-86
2021/03/14 05:16:41;;;;;;;18.33;3.50;;;4.80;95.60;;;;;;4998735;28;20122;-87
2021/03/14 05:19:08;;;;;;;22.80;4.10;;;4.80;95.60;;;;;;4974315;28;20530;-85
2021/03/14 05:21:34;;;;;;;26.08;3.42;;;4.80;95.60;;;;;;4983854;28;20038;-86
2021/03/14 05:24:03;;;;;;;16.83;3.30;;;4.80;95.60;;;;;;4966080;28;20077;-90
2021/03/14 05:26:30;;;;;;;25.52;3.80;;;4.70;95.50;;;;;;4986694;28;20035;-89
2021/03/14 05:28:56;;;;;;;22.67;3.28;;;4.70;95.60;;;;;;4972248;28;20050;-85
2021/03/14 05:31:35;;;;;;;25.40;3.83;;;4.70;95.60;;;;;;4992019;28;20547;-86
2021/03/14 05:34:03;;;;;;;24.25;3.88;;;4.70;95.60;;;;;;4994105;28;20046;-85
2021/03/14 05:36:31;;;;;;;23.75;3.45;;;4.70;95.60;;;;;;5003002;28;20070;-86
2021/03/14 05:39:01;;;;;;;21.73;3.97;;;4.70;95.60;;;;;;4980653;28;20852;-86
2021/03/14 05:41:27;;;;;;;25.75;3.67;;;4.70;95.60;;;;;;4980758;28;20043;-86
2021/03/14 05:43:53;;;;;;;19.38;3.95;;;4.70;95.70;;;;;;4986578;28;20519;-85
2021/03/14 05:46:21;;;;;;;17.33;3.45;;;4.70;95.70;;;;;;4989461;28;20062;-86
2021/03/14 05:48:49;;;;;;;26.67;4.78;;;4.70;95.70;;;;;;4984117;28;20062;-85
2021/03/14 05:51:25;;;;;;;24.33;4.47;;;4.70;95.80;;;;;;4976634;28;20132;-86
2021/03/14 05:53:52;;;;;;;18.75;4.00;;;4.70;95.80;;;;;;4988994;28;20046;-85
2021/03/14 05:56:20;;;;;;;24.00;5.05;;;4.70;95.80;;;;;;4981285;28;20121;-88
2021/03/14 05:58:47;;;;;;;23.67;4.40;;;4.70;95.80;;;;;;5001415;28;20692;-87
2021/03/14 06:01:16;;;;;;;24.02;4.20;;;4.60;95.80;;;;;;4971623;28;20149;-88
2021/03/14 06:03:42;;;;;;;25.50;5.10;;;4.60;95.90;;;;;;4974552;28;20049;-87
2021/03/14 06:06:09;;;;;;;29.95;4.95;;;4.60;95.90;;;;;;4981722;28;20710;-86
2021/03/14 06:08:35;;;;;;;23.42;4.47;;;4.60;96.00;;;;;;4978551;28;20108;-85
2021/03/14 06:11:05;;;;;;;23.98;4.90;;;4.70;96.00;;;;;;4972619;28;20050;-86
2021/03/14 06:13:32;;;;;;;18.35;4.75;;;4.70;96.00;;;;;;4976577;28;20565;-86
2021/03/14 06:15:58;;;;;;;26.40;4.75;;;4.70;96.00;;;;;;4961464;28;20328;-87
2021/03/14 06:18:25;;;;;;;29.90;4.95;;;4.70;96.00;;;;;;4972307;28;20045;-87
2021/03/14 06:20:52;;;;;;;17.30;3.85;;;4.80;96.10;;;;;;4958385;28;20027;-85
2021/03/14 06:23:19;;;;;;;26.45;4.47;;;4.80;96.10;;;;;;4976412;28;20030;-88
2021/03/14 06:25:49;;;;;;;17.55;4.07;;;4.80;96.10;;;;;;4972894;28;20505;-88
2021/03/14 06:28:16;;;;;;;26.08;4.38;;;4.80;96.00;;;;;;4974164;28;20210;-85
2021/03/14 06:30:43;;;;;;;22.83;4.50;;;4.80;96.00;;;;;;4973534;28;20045;-85
2021/03/14 06:33:16;;;;;;;18.63;3.78;;;4.80;96.00;;;;;;4989018;28;20299;-88
2021/03/14 06:35:51;;;;;;;21.08;4.25;;;4.80;96.00;;;;;;4982395;28;20031;-88
2021/03/14 06:38:24;;;;;;;18.15;3.92;;;4.80;95.90;;;;;;4987606;28;20058;-86
2021/03/14 06:41:12;;;;;;;20.83;3.35;;;4.70;95.90;;;;;;4970884;28;20042;-86
2021/03/14 06:43:40;;;;;;;19.95;3.70;;;4.70;95.90;;;;;;4976507;28;20046;-87
2021/03/14 06:46:19;;;;;;;22.45;3.75;;;4.70;95.90;;;;;;4955720;28;20057;-87
2021/03/14 06:48:44;;;;;;;17.65;3.90;;;4.70;96.00;;;;;;4974333;28;20049;-85
2021/03/14 06:51:10;;;;;;;22.30;3.95;;;4.70;96.00;;;;;;4985423;28;20501;-88
2021/03/14 06:53:36;;;;;;;24.08;4.43;;;4.70;96.00;;;;;;4962828;28;20038;-86
2021/03/14 06:56:06;;;;;;;16.88;4.35;;;4.80;96.10;;;;;;4985573;28;20042;-87
2021/03/14 06:58:36;;;;;;;23.55;3.40;;;4.80;96.10;;;;;;4970964;28;20030;-88
2021/03/14 07:01:11;;;;;;;21.48;3.33;;;4.90;96.00;;;;;;4964034;28;20286;-87
2021/03/14 07:03:39;;;;;;;20.65;3.65;;;4.90;96.00;;;;;;4963989;28;20042;-85
2021/03/14 07:06:18;;;;;;;28.75;3.67;;;5.00;96.00;;;;;;4965227;28;20038;-85
2021/03/14 07:08:55;;;;;;;20.67;3.50;;;5.00;96.00;;;;;;4978079;28;20041;-86
2021/03/14 07:11:38;;;;;;;19.90;3.75;;;5.00;96.00;;;;;;4969870;28;20034;-87
2021/03/14 07:14:10;;;;;;;14.32;3.03;;;5.10;96.00;;;;;;4974720;28;20035;-87
2021/03/14 07:16:43;;;;;;;19.77;3.25;;;5.10;95.90;;;;;;4981012;28;20041;-87
2021/03/14 07:19:12;;;;;;;20.80;3.83;;;5.20;95.90;;;;;;4979992;28;20482;-86
2021/03/14 07:21:38;;;;;;;21.30;3.45;;;5.20;95.80;;;;;;4977319;28;20551;-85
2021/03/14 07:24:06;;;;;;;15.73;3.08;;;5.20;96.10;;;;;;4971669;28;20043;-86
2021/03/14 07:26:48;;;;;;;17.67;3.58;;;5.20;95.80;;;;;;4973278;28;20416;-86
2021/03/14 07:29:13;;;;;;;16.75;3.42;;;5.20;95.70;;;;;;4996948;28;20057;-87
2021/03/14 07:31:39;;;;;;;15.75;2.70;;;5.20;95.70;;;;;;4993160;28;20062;-87
2021/03/14 07:34:06;;;;;;;15.48;2.70;;;5.20;95.70;;;;;;4989963;28;20046;-87
2021/03/14 07:36:32;;;;;;;15.43;3.33;;;5.20;95.60;;;;;;4970631;28;20034;-87
2021/03/14 07:38:59;;;;;;;13.93;3.10;;;5.20;95.70;;;;;;4958046;28;20474;-86
2021/03/14 07:41:26;;;;;;;14.90;2.60;;;5.30;96.00;;;;;;4946532;28;20042;-87
2021/03/14 07:43:53;;;;;;;17.27;2.90;;;5.30;95.70;;;;;;4979669;28;20034;-85
2021/03/14 07:46:23;;;;;;;19.95;3.58;;;5.40;95.90;;;;;;4991315;28;20463;-86
2021/03/14 07:48:50;;;;;;;20.55;3.05;;;5.40;95.60;;;;;;4984979;28;20593;-86
2021/03/14 07:51:22;;;;;;;16.13;2.70;;;5.40;95.60;;;;;;4974579;28;20081;-86
2021/03/14 07:53:49;;;;;;;16.77;3.42;;;5.50;95.60;;;;;;4987808;28;20039;-86
2021/03/14 07:56:15;;;;;;;30.10;2.95;;;5.50;95.60;;;;;;4989089;28;20073;-86
2021/03/14 07:58:41;;;;;;;15.98;3.28;;;5.50;95.60;;;;;;4984648;28;20060;-89
2021/03/14 08:01:27;;;;;;;24.73;3.30;;;5.60;95.50;;;;;;4973607;28;20121;-87
2021/03/14 08:03:53;;;;;;;14.48;3.20;;;5.70;95.60;;;;;;4976570;28;20097;-88
2021/03/14 08:06:41;;;;;;;19.60;3.38;;;5.80;95.40;;;;;;4968564;28;20050;-86
2021/03/14 08:09:10;;;;;;;17.10;3.28;;;5.80;95.40;;;;;;4983650;28;20031;-86
2021/03/14 08:11:36;;;;;;;11.85;2.60;;;5.90;95.50;;;;;;4988393;28;20055;-88
2021/03/14 08:14:02;;;;;;;15.65;3.03;;;6.00;95.50;;;;;;4985113;28;20057;-88
2021/03/14 08:16:28;;;;;;;15.45;2.58;;;6.10;95.30;;;;;;4968925;28;20271;-85
2021/03/14 08:18:54;;;;;;;19.67;3.58;;;6.20;95.30;;;;;;4986998;28;20085;-84
2021/03/14 08:21:20;;;;;;;14.80;3.10;;;6.30;95.30;;;;;;4964177;28;20038;-85
2021/03/14 08:23:57;;;;;;;19.25;3.78;;;6.40;95.30;;;;;;4986740;28;20034;-89
2021/03/14 08:26:36;;;;;;;15.93;3.65;;;6.50;95.20;;;;;;4986844;28;20336;-90
2021/03/14 08:29:10;;;;;;;18.30;3.85;;;6.50;95.20;;;;;;4971525;28;20394;-88
2021/03/14 08:31:53;;;;;;;20.77;3.13;;;6.40;95.20;;;;;;4970721;28;20037;-86
2021/03/14 08:34:20;;;;;;;24.33;3.92;;;6.40;95.00;;;;;;4993875;28;20054;-89
2021/03/14 08:36:48;;;;;;;20.10;3.08;;;6.40;94.90;;;;;;4980700;28;20066;-86
2021/03/14 08:39:34;;;;;;;17.40;3.75;;;6.50;95.00;;;;;;4967596;28;20141;-90
2021/03/14 08:42:03;;;;;;;18.60;3.40;;;6.50;95.00;;;;;;4983730;28;20049;-85
2021/03/14 08:44:41;;;;;;;14.68;2.80;;;6.50;94.90;;;;;;4974394;28;20037;-85
2021/03/14 08:47:15;;;;;;;15.30;3.22;;;6.60;94.90;;;;;;4982988;28;20548;-91
2021/03/14 08:49:52;;;;;;;15.43;3.15;;;6.60;94.90;;;;;;4965649;28;20117;-85
2021/03/14 08:52:18;;;;;;;17.70;3.63;;;6.70;94.70;;;;;;4979153;28;20046;-85
2021/03/14 08:54:54;;;;;;;22.33;3.50;;;6.70;94.70;;;;;;4981561;28;20100;-86
2021/03/14 08:57:21;;;;;;;18.20;3.30;;;6.70;94.70;;;;;;4976824;28;20031;-85
2021/03/14 08:59:53;;;;;;;19.02;3.80;;;6.80;94.40;;;;;;4949262;28;20274;-85
2021/03/14 09:02:28;;;;;;;;;;;7.00;94.60;;;;;;4988264;28;20046;-88
2021/03/14 09:05:08;;;;;;;17.52;3.00;;;7.20;93.80;;;;;;4997915;28;19928;-86
2021/03/14 09:07:34;;;;;;;19.15;3.17;;;7.20;94.30;;;;;;4993141;28;20265;-87
2021/03/14 09:10:17;;;;;;;16.27;3.30;;;7.20;94.40;;;;;;4984318;28;20034;-87
2021/03/14 09:12:56;;;;;;;17.10;3.08;;;7.20;94.30;;;;;;4979688;28;20080;-87
2021/03/14 09:15:22;;;;;;;18.98;3.65;;;7.30;94.40;;;;;;4967623;28;20042;-87
2021/03/14 09:17:48;;;;;;;19.80;3.38;;;7.40;94.30;;;;;;4959345;28;20186;-84
2021/03/14 09:20:17;;;;;;;20.42;3.88;;;7.50;94.10;;;;;;4951506;28;20557;-86
2021/03/14 09:22:42;;;;;;;14.25;3.08;;;7.50;93.70;;;;;;4990608;28;20023;-90
2021/03/14 09:25:11;;;;;;;19.98;2.83;;;7.70;93.90;;;;;;4995847;28;20371;-90
2021/03/14 09:27:44;;;;;;;9.77;2.75;;;7.80;93.50;;;;;;4983848;28;20136;-86
2021/03/14 09:30:13;;;;;;;15.60;2.70;;;7.90;93.50;;;;;;5001466;28;20563;-85
2021/03/14 09:32:41;;;;;;;16.48;3.22;;;7.90;93.60;;;;;;4980435;28;20035;-87
2021/03/14 09:35:11;;;;;;;13.15;2.67;;;7.90;93.40;;;;;;4979925;28;20043;-86
2021/03/14 09:37:38;;;;;;;12.88;2.45;;;7.90;93.60;;;;;;4985467;28;20057;-89
2021/03/14 09:40:22;;;;;;;14.80;2.50;;;7.90;93.20;;;;;;4976938;28;20077;-86
2021/03/14 09:42:50;;;;;;;12.63;2.33;;;7.90;93.10;;;;;;4982150;28;20478;-87
2021/03/14 09:45:21;;;;;;;15.07;2.90;;;7.80;93.40;;;;;;4964823;28;20137;-86
2021/03/14 09:48:15;;;;;;;15.27;3.78;;;7.80;93.50;;;;;;4965279;28;20490;-86
2021/03/14 09:50:55;;;;;;;11.43;2.30;;;7.90;93.10;;;;;;4978177;28;20063;-85
2021/03/14 09:53:25;;;;;;;14.50;2.80;;;8.20;92.50;;;;;;4981093;28;20031;-87
2021/03/14 09:55:53;;;;;;;12.02;2.25;;;8.20;92.80;;;;;;4981092;28;20038;-88
2021/03/14 09:58:20;;;;;;;14.90;2.80;;;8.30;92.70;;;;;;4973235;28;20110;-90
2021/03/14 10:00:49;;;;;;;12.65;2.60;;;8.40;92.80;;;;;;4985046;28;20498;-85
2021/03/14 10:03:23;;;;;;;15.73;2.75;;;8.40;92.50;;;;;;4989464;28;20059;-86
2021/03/14 10:05:54;;;;;;;7.70;2.20;;;8.30;92.50;;;;;;4979958;28;20138;-86
2021/03/14 10:08:25;;;;;;;10.05;2.00;;;8.20;92.50;;;;;;4972520;28;20089;-85
2021/03/14 10:10:55;;;;;;;16.88;2.13;;;8.00;92.40;;;;;;4992501;28;20493;-85
2021/03/14 10:13:25;;;;;;;14.25;2.72;;;7.80;92.50;;;;;;4977703;28;20085;-85
2021/03/14 10:15:55;;;;;;;21.33;2.92;;;7.70;92.90;;;;;;4982543;28;20042;-86
2021/03/14 10:18:23;;;;;;;14.00;2.50;;;7.60;92.80;;;;;;4962402;28;20045;-86
2021/03/14 10:20:50;;;;;;;11.75;2.55;;;7.70;93.00;;;;;;4983044;28;20066;-87
2021/03/14 10:23:23;;;;;;;15.70;2.53;;;7.70;92.90;;;;;;4987749;28;20038;-87
2021/03/14 10:25:49;;;;;;;13.88;2.33;;;7.70;92.80;;;;;;4987713;28;20375;-87
2021/03/14 10:28:18;;;;;;;8.30;1.55;;;7.80;92.80;;;;;;4994886;28;20398;-87
2021/03/14 10:30:47;;;;;;;8.98;2.00;;;8.00;92.60;;;;;;4983812;28;20039;-86
2021/03/14 10:33:27;;;;;;;7.80;1.63;;;8.20;92.10;;;;;;4987274;28;20030;-87
2021/03/14 10:36:19;;;;;;;7.80;1.83;;;8.30;92.20;;;;;;4985174;28;20050;-89
2021/03/14 10:38:52;;;;;;;8.65;2.30;;;8.50;91.70;;;;;;4970987;28;20070;-86
2021/03/14 10:41:22;;;;;;;;;;;8.60;91.30;;;;;;4999226;28;20052;-86
2021/03/14 10:43:59;;;;;;;12.70;1.98;;;8.60;90.30;;;;;;4994518;28;19925;-88
2021/03/14 10:46:52;;;;;;;11.35;2.42;;;8.50;91.50;;;;;;4965495;28;20043;-84
2021/03/14 10:49:24;;;;;;;;;;;8.50;91.00;;;;;;4965809;28;20497;-85
2021/03/14 10:51:56;;;;;;;11.15;2.55;;;8.60;91.00;;;;;;4986799;28;19917;-91
2021/03/14 10:54:23;;;;;;;9.07;1.88;;;8.80;91.90;;;;;;4979180;28;20530;-85
2021/03/14 10:56:50;;;;;;;12.45;2.22;;;9.00;91.50;;;;;;4985964;28;20490;-89
2021/03/14 10:59:32;;;;;;;8.75;1.05;;;9.20;91.70;;;;;;4989290;28;20031;-85
2021/03/14 11:02:20;;;;;;;6.45;0.80;;;9.30;91.30;;;;;;4982898;28;20043;-89
2021/03/14 11:04:59;;;;;;;5.90;0.95;;;9.10;88.60;;;;;;4964544;28;20413;-86
2021/03/14 11:07:30;;;;;;;3.95;0.75;;;8.80;90.20;;;;;;4977579;28;20137;-87
2021/03/14 11:10:15;;;;;;;4.07;1.13;;;8.60;90.50;;;;;;4964868;28;20030;-86
2021/03/14 11:12:44;;;;;;;11.05;1.48;;;8.60;90.80;;;;;;4961719;28;20054;-86
2021/03/14 11:15:36;;;;;;;9.90;1.50;;;8.70;91.40;;;;;;4985458;28;20050;-89
2021/03/14 11:18:04;;;;;;;11.23;2.20;;;9.00;90.10;;;;;;4981272;28;20081;-88
2021/03/14 11:20:30;;;;;;;7.63;1.80;;;9.20;91.10;;;;;;4988191;28;20297;-88
2021/03/14 11:22:57;;;;;;;7.63;1.38;;;9.40;91.60;;;;;;4973730;28;20109;-87
2021/03/14 11:25:24;;;;;;;5.95;1.20;;;9.30;91.50;;;;;;4983342;28;20118;-86
2021/03/14 11:27:54;;;;;;;4.32;0.95;;;9.30;91.30;;;;;;4972321;28;20054;-85
2021/03/14 11:30:25;;;;;;;6.03;1.20;;;9.20;91.20;;;;;;4986791;28;20418;-85
2021/03/14 11:32:52;;;;;;;6.55;1.30;;;9.00;91.20;;;;;;4959381;28;20401;-84
2021/03/14 11:35:18;;;;;;;9.13;2.03;;;8.90;90.80;;;;;;4986008;28;20133;-85
2021/03/14 11:37:44;;;;;;;9.30;1.52;;;8.90;90.60;;;;;;4984110;28;20034;-89
2021/03/14 11:40:11;;;;;;;8.25;1.60;;;9.10;90.80;;;;;;4956053;28;20383;-86
2021/03/14 11:42:37;;;;;;;7.43;1.58;;;9.20;90.90;;;;;;4980381;28;20041;-86
2021/03/14 11:45:06;;;;;;;7.80;1.50;;;9.40;90.70;;;;;;4953223;28;20096;-86
2021/03/14 11:47:33;;;;;;;7.25;1.65;;;9.50;90.50;;;;;;4971937;28;20023;-88
2021/03/14 11:49:58;;;;;;;9.52;1.65;;;9.60;90.30;;;;;;4942584;28;20498;-88
2021/03/14 11:52:24;;;;;;;7.40;1.33;;;9.70;90.60;;;;;;4967258;28;20079;-88
2021/03/14 11:54:51;;;;;;;8.13;1.48;;;9.90;90.00;;;;;;4984998;28;20073;-88
2021/03/14 11:57:17;;;;;;;8.35;1.33;;;9.80;90.10;;;;;;4989914;28;20046;-87
2021/03/14 11:59:42;;;;;;;12.25;2.30;;;9.70;90.00;;;;;;4971130;28;20053;-85
2021/03/14 12:02:09;;;;;;;9.00;1.98;;;9.70;90.20;;;;;;4969821;28;20173;-85
2021/03/14 12:04:35;;;;;;;7.30;1.92;;;9.70;90.50;;;;;;4992339;28;20049;-85
2021/03/14 12:07:01;;;;;;;8.27;1.73;;;9.90;90.60;;;;;;4977036;28;20031;-86
2021/03/14 12:09:27;;;;;;;10.27;1.70;;;10.10;90.40;;;;;;4971202;28;20113;-88
2021/03/14 12:11:53;;;;;;;5.15;1.20;;;10.30;90.20;;;;;;4979650;28;20496;-88
2021/03/14 12:14:19;;;;;;;6.25;1.70;;;10.40;90.10;;;;;;4966312;28;20041;-88
2021/03/14 12:16:45;;;;;;;10.05;2.00;;;10.50;90.30;;;;;;4965990;28;20050;-86
2021/03/14 12:19:11;;;;;;;4.30;1.50;;;10.70;90.00;;;;;;4972337;28;20034;-85
2021/03/14 12:21:37;;;;;;;7.32;1.80;;;10.80;89.50;;;;;;4965158;28;20035;-86
2021/03/14 12:24:03;;;;;;;8.48;1.48;;;10.90;90.10;;;;;;4965495;28;20058;-89
2021/03/14 12:26:28;;;;;;;9.02;2.08;;;11.10;90.00;;;;;;4983082;28;20052;-86
2021/03/14 12:28:55;;;;;;;6.05;1.67;;;11.30;90.60;;;;;;4994938;28;20117;-86
2021/03/14 12:31:21;;;;;;;6.30;1.35;;;11.40;91.00;;;;;;4961670;28;20049;-86
2021/03/14 12:33:47;;;;;;;10.77;1.92;;;11.30;89.80;;;;;;4966611;28;20508;-88
2021/03/14 12:36:14;;;;;;;11.35;2.20;;;11.30;89.40;;;;;;4969380;28;20059;-85
2021/03/14 12:38:40;;;;;;;9.52;1.60;;;11.10;88.70;;;;;;4973422;28;20122;-88
2021/03/14 12:41:06;;;;;;;7.00;1.60;;;11.00;87.80;;;;;;4993277;28;20048;-89
2021/03/14 12:43:32;;;;;;;9.27;2.00;;;10.80;85.80;;;;;;4993333;28;20077;-89
2021/03/14 12:46:01;;;;;;;12.23;2.30;;;10.40;85.40;;;;;;4966032;28;20034;-88
2021/03/14 12:48:26;;;;;;;7.95;1.55;;;10.00;86.50;;;;;;4995040;28;20134;-86
2021/03/14 12:50:52;;;;;;;10.77;2.22;;;9.60;86.50;;;;;;4983385;28;20126;-88
2021/03/14 12:53:18;;;;;;;10.02;1.60;;;9.40;87.50;;;;;;4966318;28;20038;-86
2021/03/14 12:55:44;;;;;;;11.57;1.80;;;9.40;87.00;;;;;;4970346;28;20026;-86
2021/03/14 12:58:10;;;;;;;9.85;1.42;;;9.50;87.00;;;;;;4970543;28;20045;-86